sensor_id;sensor_type;location;lat;lon;timestamp;P1;durP1;ratioP1;P2;durP2;ratioP2
10705;SDS011;5404;42.656;23.336;2023-09-30T00:00:06;16.13;;;6.43;;
10705;SDS011;5404;42.656;23.336;2023-09-30T00:02:33;17.05;;;8.75;;
10705;SDS011;5404;42.656;23.336;2023-09-30T00:04:59;23.77;;;8.30;;
10705;SDS011;5404;42.656;23.336;2023-09-30T00:07:24;16.10;;;7.30;;
10705;SDS011;5404;42.656;23.336;2023-09-30T00:09:51;21.80;;;7.75;;
10705;SDS011;5404;42.656;23.336;2023-09-30T00:12:17;30.15;;;7.72;;
10705;SDS011;5404;42.656;23.336;2023-09-30T00:14:42;20.73;;;7.82;;
10705;SDS011;5404;42.656;23.336;2023-09-30T00:17:08;22.98;;;7.63;;
10705;SDS011;5404;42.656;23.336;2023-09-30T00:19:33;22.80;;;8.20;;
10705;SDS011;5404;42.656;23.336;2023-09-30T00:21:59;16.13;;;7.07;;
10705;SDS011;5404;42.656;23.336;2023-09-30T00:24:27;14.50;;;7.00;;
10705;SDS011;5404;42.656;23.336;2023-09-30T00:26:53;19.42;;;7.78;;
10705;SDS011;5404;42.656;23.336;2023-09-30T00:29:19;31.40;;;8.63;;
10705;SDS011;5404;42.656;23.336;2023-09-30T00:31:45;24.67;;;7.43;;
10705;SDS011;5404;42.656;23.336;2023-09-30T00:34:10;22.27;;;7.60;;
10705;SDS011;5404;42.656;23.336;2023-09-30T00:36:35;34.10;;;8.30;;
10705;SDS011;5404;42.656;23.336;2023-09-30T00:39:01;32.45;;;9.32;;
10705;SDS011;5404;42.656;23.336;2023-09-30T00:41:26;42.53;;;8.50;;
10705;SDS011;5404;42.656;23.336;2023-09-30T00:43:52;29.88;;;7.95;;
10705;SDS011;5404;42.656;23.336;2023-09-30T00:46:20;21.52;;;7.72;;
10705;SDS011;5404;42.656;23.336;2023-09-30T00:48:52;17.17;;;7.00;;
10705;SDS011;5404;42.656;23.336;2023-09-30T00:51:18;38.45;;;8.73;;
10705;SDS011;5404;42.656;23.336;2023-09-30T00:53:44;24.58;;;8.25;;
10705;SDS011;5404;42.656;23.336;2023-09-30T00:56:10;20.60;;;7.93;;
10705;SDS011;5404;42.656;23.336;2023-09-30T00:58:36;24.25;;;7.28;;
10705;SDS011;5404;42.656;23.336;2023-09-30T01:01:03;22.15;;;8.10;;
10705;SDS011;5404;42.656;23.336;2023-09-30T01:03:29;14.93;;;7.63;;
10705;SDS011;5404;42.656;23.336;2023-09-30T01:05:55;21.00;;;7.35;;
10705;SDS011;5404;42.656;23.336;2023-09-30T01:08:21;19.05;;;7.57;;
10705;SDS011;5404;42.656;23.336;2023-09-30T01:10:47;22.02;;;7.22;;
10705;SDS011;5404;42.656;23.336;2023-09-30T01:13:13;20.80;;;7.13;;
10705;SDS011;5404;42.656;23.336;2023-09-30T01:15:38;24.95;;;7.75;;
10705;SDS011;5404;42.656;23.336;2023-09-30T01:18:04;19.00;;;6.78;;
10705;SDS011;5404;42.656;23.336;2023-09-30T01:20:29;19.38;;;6.90;;
10705;SDS011;5404;42.656;23.336;2023-09-30T01:22:56;24.27;;;8.30;;
10705;SDS011;5404;42.656;23.336;2023-09-30T01:25:23;27.55;;;8.32;;
10705;SDS011;5404;42.656;23.336;2023-09-30T01:27:49;18.95;;;8.38;;
10705;SDS011;5404;42.656;23.336;2023-09-30T01:30:16;17.25;;;7.55;;
10705;SDS011;5404;42.656;23.336;2023-09-30T01:32:43;26.27;;;8.32;;
10705;SDS011;5404;42.656;23.336;2023-09-30T01:35:09;21.55;;;8.05;;
10705;SDS011;5404;42.656;23.336;2023-09-30T01:37:34;21.02;;;8.02;;
10705;SDS011;5404;42.656;23.336;2023-09-30T01:40:00;19.00;;;7.72;;
10705;SDS011;5404;42.656;23.336;2023-09-30T01:42:26;24.02;;;8.32;;
10705;SDS011;5404;42.656;23.336;2023-09-30T01:44:51;14.45;;;6.90;;
10705;SDS011;5404;42.656;23.336;2023-09-30T01:47:17;22.90;;;7.32;;
10705;SDS011;5404;42.656;23.336;2023-09-30T01:49:42;21.50;;;8.48;;
10705;SDS011;5404;42.656;23.336;2023-09-30T01:52:07;22.17;;;7.55;;
10705;SDS011;5404;42.656;23.336;2023-09-30T01:54:33;15.73;;;8.00;;
10705;SDS011;5404;42.656;23.336;2023-09-30T01:56:59;24.17;;;7.40;;
10705;SDS011;5404;42.656;23.336;2023-09-30T01:59:24;19.77;;;8.15;;
10705;SDS011;5404;42.656;23.336;2023-09-30T02:01:50;20.65;;;7.68;;
10705;SDS011;5404;42.656;23.336;2023-09-30T02:04:15;18.77;;;7.13;;
10705;SDS011;5404;42.656;23.336;2023-09-30T02:06:42;29.48;;;7.82;;
10705;SDS011;5404;42.656;23.336;2023-09-30T02:09:07;17.73;;;8.45;;
10705;SDS011;5404;42.656;23.336;2023-09-30T02:11:34;21.55;;;7.80;;
10705;SDS011;5404;42.656;23.336;2023-09-30T02:14:01;22.05;;;8.30;;
10705;SDS011;5404;42.656;23.336;2023-09-30T02:16:27;16.25;;;8.50;;
10705;SDS011;5404;42.656;23.336;2023-09-30T02:18:52;16.40;;;8.05;;
10705;SDS011;5404;42.656;23.336;2023-09-30T02:21:18;17.50;;;7.82;;
10705;SDS011;5404;42.656;23.336;2023-09-30T02:23:44;19.15;;;8.38;;
10705;SDS011;5404;42.656;23.336;2023-09-30T02:26:13;17.05;;;8.27;;
10705;SDS011;5404;42.656;23.336;2023-09-30T02:28:39;16.20;;;8.98;;
10705;SDS011;5404;42.656;23.336;2023-09-30T02:31:05;17.17;;;7.75;;
10705;SDS011;5404;42.656;23.336;2023-09-30T02:33:32;23.15;;;9.02;;
10705;SDS011;5404;42.656;23.336;2023-09-30T02:36:00;22.98;;;8.45;;
10705;SDS011;5404;42.656;23.336;2023-09-30T02:38:27;25.50;;;8.50;;
10705;SDS011;5404;42.656;23.336;2023-09-30T02:40:54;23.50;;;8.60;;
10705;SDS011;5404;42.656;23.336;2023-09-30T02:43:19;21.25;;;8.25;;
10705;SDS011;5404;42.656;23.336;2023-09-30T02:45:45;23.35;;;8.70;;
10705;SDS011;5404;42.656;23.336;2023-09-30T02:48:11;16.73;;;7.90;;
10705;SDS011;5404;42.656;23.336;2023-09-30T02:50:36;18.75;;;8.95;;
10705;SDS011;5404;42.656;23.336;2023-09-30T02:53:02;21.88;;;8.05;;
10705;SDS011;5404;42.656;23.336;2023-09-30T02:55:27;18.02;;;9.00;;
10705;SDS011;5404;42.656;23.336;2023-09-30T02:57:53;36.78;;;9.57;;
10705;SDS011;5404;42.656;23.336;2023-09-30T03:00:18;26.77;;;9.00;;
10705;SDS011;5404;42.656;23.336;2023-09-30T03:02:54;26.00;;;10.80;;
10705;SDS011;5404;42.656;23.336;2023-09-30T03:05:21;25.33;;;8.88;;
10705;SDS011;5404;42.656;23.336;2023-09-30T03:07:48;40.53;;;10.00;;
10705;SDS011;5404;42.656;23.336;2023-09-30T03:10:15;22.27;;;9.65;;
10705;SDS011;5404;42.656;23.336;2023-09-30T03:12:46;16.77;;;8.65;;
10705;SDS011;5404;42.656;23.336;2023-09-30T03:15:12;26.92;;;9.23;;
10705;SDS011;5404;42.656;23.336;2023-09-30T03:17:38;19.48;;;8.43;;
10705;SDS011;5404;42.656;23.336;2023-09-30T03:20:03;27.40;;;8.63;;
10705;SDS011;5404;42.656;23.336;2023-09-30T03:22:43;33.03;;;9.45;;
10705;SDS011;5404;42.656;23.336;2023-09-30T03:25:09;18.83;;;8.38;;
10705;SDS011;5404;42.656;23.336;2023-09-30T03:27:36;20.42;;;9.00;;
10705;SDS011;5404;42.656;23.336;2023-09-30T03:30:04;23.75;;;9.65;;
10705;SDS011;5404;42.656;23.336;2023-09-30T03:32:30;17.70;;;8.75;;
10705;SDS011;5404;42.656;23.336;2023-09-30T03:34:58;18.90;;;9.15;;
10705;SDS011;5404;42.656;23.336;2023-09-30T03:37:27;16.58;;;8.68;;
10705;SDS011;5404;42.656;23.336;2023-09-30T03:39:53;17.00;;;8.18;;
10705;SDS011;5404;42.656;23.336;2023-09-30T03:42:19;27.05;;;8.57;;
10705;SDS011;5404;42.656;23.336;2023-09-30T03:44:45;19.98;;;8.60;;
10705;SDS011;5404;42.656;23.336;2023-09-30T03:47:10;31.35;;;9.52;;
10705;SDS011;5404;42.656;23.336;2023-09-30T03:49:36;16.90;;;8.23;;
10705;SDS011;5404;42.656;23.336;2023-09-30T03:52:03;26.15;;;9.45;;
10705;SDS011;5404;42.656;23.336;2023-09-30T03:54:29;17.52;;;8.55;;
10705;SDS011;5404;42.656;23.336;2023-09-30T03:56:55;23.73;;;9.15;;
10705;SDS011;5404;42.656;23.336;2023-09-30T03:59:20;21.23;;;8.32;;
10705;SDS011;5404;42.656;23.336;2023-09-30T04:01:45;16.88;;;8.93;;
10705;SDS011;5404;42.656;23.336;2023-09-30T04:04:12;25.63;;;11.73;;
10705;SDS011;5404;42.656;23.336;2023-09-30T04:06:38;30.70;;;10.35;;
10705;SDS011;5404;42.656;23.336;2023-09-30T04:09:04;23.58;;;8.75;;
10705;SDS011;5404;42.656;23.336;2023-09-30T04:11:35;19.05;;;9.27;;
10705;SDS011;5404;42.656;23.336;2023-09-30T04:14:04;23.17;;;9.52;;
10705;SDS011;5404;42.656;23.336;2023-09-30T04:16:31;21.67;;;9.55;;
10705;SDS011;5404;42.656;23.336;2023-09-30T04:18:56;18.85;;;9.73;;
10705;SDS011;5404;42.656;23.336;2023-09-30T04:21:22;66.35;;;10.45;;
10705;SDS011;5404;42.656;23.336;2023-09-30T04:23:47;28.65;;;10.25;;
10705;SDS011;5404;42.656;23.336;2023-09-30T04:26:14;33.88;;;10.13;;
10705;SDS011;5404;42.656;23.336;2023-09-30T04:28:40;25.58;;;10.23;;
10705;SDS011;5404;42.656;23.336;2023-09-30T04:31:05;29.45;;;10.80;;
10705;SDS011;5404;42.656;23.336;2023-09-30T04:33:32;26.10;;;10.40;;
10705;SDS011;5404;42.656;23.336;2023-09-30T04:36:00;27.58;;;9.88;;
10705;SDS011;5404;42.656;23.336;2023-09-30T04:38:26;72.43;;;12.38;;
10705;SDS011;5404;42.656;23.336;2023-09-30T04:40:52;31.85;;;11.32;;
10705;SDS011;5404;42.656;23.336;2023-09-30T04:43:19;33.22;;;10.27;;
10705;SDS011;5404;42.656;23.336;2023-09-30T04:45:45;26.98;;;10.02;;
10705;SDS011;5404;42.656;23.336;2023-09-30T04:48:11;29.48;;;9.90;;
10705;SDS011;5404;42.656;23.336;2023-09-30T04:50:38;32.20;;;11.10;;
10705;SDS011;5404;42.656;23.336;2023-09-30T04:53:06;41.40;;;11.25;;
10705;SDS011;5404;42.656;23.336;2023-09-30T04:55:34;36.90;;;11.00;;
10705;SDS011;5404;42.656;23.336;2023-09-30T04:57:59;26.33;;;10.52;;
10705;SDS011;5404;42.656;23.336;2023-09-30T05:00:25;17.13;;;9.82;;
10705;SDS011;5404;42.656;23.336;2023-09-30T05:02:54;26.83;;;10.70;;
10705;SDS011;5404;42.656;23.336;2023-09-30T05:05:20;30.08;;;9.65;;
10705;SDS011;5404;42.656;23.336;2023-09-30T05:07:46;23.15;;;10.07;;
10705;SDS011;5404;42.656;23.336;2023-09-30T05:10:12;25.00;;;10.15;;
10705;SDS011;5404;42.656;23.336;2023-09-30T05:12:41;21.70;;;9.45;;
10705;SDS011;5404;42.656;23.336;2023-09-30T05:15:12;26.75;;;10.02;;
10705;SDS011;5404;42.656;23.336;2023-09-30T05:17:40;21.00;;;10.60;;
10705;SDS011;5404;42.656;23.336;2023-09-30T05:20:08;29.60;;;10.23;;
10705;SDS011;5404;42.656;23.336;2023-09-30T05:22:33;26.25;;;11.05;;
10705;SDS011;5404;42.656;23.336;2023-09-30T05:24:59;56.72;;;11.13;;
10705;SDS011;5404;42.656;23.336;2023-09-30T05:27:25;66.70;;;12.48;;
10705;SDS011;5404;42.656;23.336;2023-09-30T05:29:51;108.30;;;15.23;;
10705;SDS011;5404;42.656;23.336;2023-09-30T05:32:16;58.33;;;12.00;;
10705;SDS011;5404;42.656;23.336;2023-09-30T05:34:43;33.20;;;9.90;;
10705;SDS011;5404;42.656;23.336;2023-09-30T05:37:08;30.73;;;10.55;;
10705;SDS011;5404;42.656;23.336;2023-09-30T05:39:34;23.35;;;8.85;;
10705;SDS011;5404;42.656;23.336;2023-09-30T05:42:00;28.58;;;10.63;;
10705;SDS011;5404;42.656;23.336;2023-09-30T05:44:25;43.65;;;12.25;;
10705;SDS011;5404;42.656;23.336;2023-09-30T05:46:52;38.20;;;11.18;;
10705;SDS011;5404;42.656;23.336;2023-09-30T05:49:18;29.90;;;10.43;;
10705;SDS011;5404;42.656;23.336;2023-09-30T05:51:44;26.58;;;10.25;;
10705;SDS011;5404;42.656;23.336;2023-09-30T05:54:10;31.73;;;10.18;;
10705;SDS011;5404;42.656;23.336;2023-09-30T05:56:36;30.17;;;11.35;;
10705;SDS011;5404;42.656;23.336;2023-09-30T05:59:02;32.13;;;10.20;;
10705;SDS011;5404;42.656;23.336;2023-09-30T06:01:30;42.45;;;11.70;;
10705;SDS011;5404;42.656;23.336;2023-09-30T06:03:57;18.00;;;10.82;;
10705;SDS011;5404;42.656;23.336;2023-09-30T06:06:22;28.73;;;11.35;;
10705;SDS011;5404;42.656;23.336;2023-09-30T06:08:49;31.85;;;11.73;;
10705;SDS011;5404;42.656;23.336;2023-09-30T06:11:18;30.08;;;10.98;;
10705;SDS011;5404;42.656;23.336;2023-09-30T06:13:44;26.30;;;10.55;;
10705;SDS011;5404;42.656;23.336;2023-09-30T06:16:11;23.75;;;10.82;;
10705;SDS011;5404;42.656;23.336;2023-09-30T06:18:37;26.98;;;11.50;;
10705;SDS011;5404;42.656;23.336;2023-09-30T06:21:03;43.17;;;12.35;;
10705;SDS011;5404;42.656;23.336;2023-09-30T06:23:29;33.53;;;10.70;;
10705;SDS011;5404;42.656;23.336;2023-09-30T06:25:55;27.45;;;10.63;;
10705;SDS011;5404;42.656;23.336;2023-09-30T06:28:21;23.90;;;10.68;;
10705;SDS011;5404;42.656;23.336;2023-09-30T06:30:51;38.67;;;12.15;;
10705;SDS011;5404;42.656;23.336;2023-09-30T06:33:16;22.90;;;11.43;;
10705;SDS011;5404;42.656;23.336;2023-09-30T06:35:42;41.20;;;11.15;;
10705;SDS011;5404;42.656;23.336;2023-09-30T06:38:15;26.55;;;9.57;;
10705;SDS011;5404;42.656;23.336;2023-09-30T06:40:44;26.35;;;10.32;;
10705;SDS011;5404;42.656;23.336;2023-09-30T06:43:12;30.85;;;9.52;;
10705;SDS011;5404;42.656;23.336;2023-09-30T06:45:44;21.90;;;8.70;;
10705;SDS011;5404;42.656;23.336;2023-09-30T06:48:11;22.38;;;8.82;;
10705;SDS011;5404;42.656;23.336;2023-09-30T06:53:16;21.23;;;8.90;;
10705;SDS011;5404;42.656;23.336;2023-09-30T06:55:42;20.58;;;8.20;;
10705;SDS011;5404;42.656;23.336;2023-09-30T07:00:37;22.75;;;9.77;;
10705;SDS011;5404;42.656;23.336;2023-09-30T07:03:03;34.88;;;12.73;;
10705;SDS011;5404;42.656;23.336;2023-09-30T07:05:28;23.98;;;9.23;;
10705;SDS011;5404;42.656;23.336;2023-09-30T07:07:54;19.00;;;9.60;;
10705;SDS011;5404;42.656;23.336;2023-09-30T07:10:20;46.28;;;18.75;;
10705;SDS011;5404;42.656;23.336;2023-09-30T07:12:45;20.55;;;9.35;;
10705;SDS011;5404;42.656;23.336;2023-09-30T07:15:11;15.98;;;8.02;;
10705;SDS011;5404;42.656;23.336;2023-09-30T07:17:36;15.82;;;6.45;;
10705;SDS011;5404;42.656;23.336;2023-09-30T07:20:02;21.52;;;7.68;;
10705;SDS011;5404;42.656;23.336;2023-09-30T07:22:30;26.58;;;8.80;;
10705;SDS011;5404;42.656;23.336;2023-09-30T07:24:56;17.10;;;8.30;;
10705;SDS011;5404;42.656;23.336;2023-09-30T07:27:22;29.25;;;6.85;;
10705;SDS011;5404;42.656;23.336;2023-09-30T07:29:48;22.58;;;7.93;;
10705;SDS011;5404;42.656;23.336;2023-09-30T07:32:13;22.77;;;6.60;;
10705;SDS011;5404;42.656;23.336;2023-09-30T07:34:39;18.10;;;6.63;;
10705;SDS011;5404;42.656;23.336;2023-09-30T07:37:05;17.70;;;6.47;;
10705;SDS011;5404;42.656;23.336;2023-09-30T07:39:30;29.60;;;7.53;;
10705;SDS011;5404;42.656;23.336;2023-09-30T07:41:56;26.25;;;6.38;;
10705;SDS011;5404;42.656;23.336;2023-09-30T07:44:21;15.52;;;6.30;;
10705;SDS011;5404;42.656;23.336;2023-09-30T07:46:47;26.48;;;6.80;;
10705;SDS011;5404;42.656;23.336;2023-09-30T07:49:12;20.45;;;6.88;;
10705;SDS011;5404;42.656;23.336;2023-09-30T07:51:38;19.15;;;5.85;;
10705;SDS011;5404;42.656;23.336;2023-09-30T07:54:06;16.85;;;6.05;;
10705;SDS011;5404;42.656;23.336;2023-09-30T07:56:31;27.83;;;7.65;;
10705;SDS011;5404;42.656;23.336;2023-09-30T07:58:57;11.90;;;6.57;;
10705;SDS011;5404;42.656;23.336;2023-09-30T08:01:22;16.05;;;5.80;;
10705;SDS011;5404;42.656;23.336;2023-09-30T08:03:48;15.32;;;6.18;;
10705;SDS011;5404;42.656;23.336;2023-09-30T08:06:14;23.60;;;5.50;;
10705;SDS011;5404;42.656;23.336;2023-09-30T08:08:39;16.83;;;5.30;;
10705;SDS011;5404;42.656;23.336;2023-09-30T08:11:05;16.40;;;6.15;;
10705;SDS011;5404;42.656;23.336;2023-09-30T08:13:31;17.60;;;5.25;;
10705;SDS011;5404;42.656;23.336;2023-09-30T08:15:57;20.17;;;5.88;;
10705;SDS011;5404;42.656;23.336;2023-09-30T08:18:26;19.15;;;6.40;;
10705;SDS011;5404;42.656;23.336;2023-09-30T08:20:51;12.77;;;5.70;;
10705;SDS011;5404;42.656;23.336;2023-09-30T08:23:18;27.65;;;6.82;;
10705;SDS011;5404;42.656;23.336;2023-09-30T08:25:43;17.58;;;5.85;;
10705;SDS011;5404;42.656;23.336;2023-09-30T08:28:09;18.98;;;5.95;;
10705;SDS011;5404;42.656;23.336;2023-09-30T08:30:37;15.35;;;6.32;;
10705;SDS011;5404;42.656;23.336;2023-09-30T08:33:03;18.98;;;6.32;;
10705;SDS011;5404;42.656;23.336;2023-09-30T08:35:30;14.25;;;5.65;;
10705;SDS011;5404;42.656;23.336;2023-09-30T08:38:00;17.88;;;6.28;;
10705;SDS011;5404;42.656;23.336;2023-09-30T08:40:27;15.07;;;6.50;;
10705;SDS011;5404;42.656;23.336;2023-09-30T08:42:52;16.27;;;6.05;;
10705;SDS011;5404;42.656;23.336;2023-09-30T08:45:18;13.98;;;6.53;;
10705;SDS011;5404;42.656;23.336;2023-09-30T08:47:44;20.35;;;7.22;;
10705;SDS011;5404;42.656;23.336;2023-09-30T08:50:11;15.25;;;7.47;;
10705;SDS011;5404;42.656;23.336;2023-09-30T08:52:39;19.80;;;7.75;;
10705;SDS011;5404;42.656;23.336;2023-09-30T08:55:11;27.03;;;7.60;;
10705;SDS011;5404;42.656;23.336;2023-09-30T08:57:37;20.17;;;7.22;;
10705;SDS011;5404;42.656;23.336;2023-09-30T09:00:07;20.08;;;7.03;;
10705;SDS011;5404;42.656;23.336;2023-09-30T09:02:36;20.27;;;7.13;;
10705;SDS011;5404;42.656;23.336;2023-09-30T09:05:02;16.50;;;6.45;;
10705;SDS011;5404;42.656;23.336;2023-09-30T09:07:28;20.17;;;7.75;;
10705;SDS011;5404;42.656;23.336;2023-09-30T09:12:31;29.48;;;8.70;;
10705;SDS011;5404;42.656;23.336;2023-09-30T09:14:58;21.60;;;8.07;;
10705;SDS011;5404;42.656;23.336;2023-09-30T09:17:24;31.58;;;8.13;;
10705;SDS011;5404;42.656;23.336;2023-09-30T09:20:06;21.63;;;7.68;;
10705;SDS011;5404;42.656;23.336;2023-09-30T09:25:06;20.25;;;7.18;;
10705;SDS011;5404;42.656;23.336;2023-09-30T09:27:37;21.73;;;8.77;;
10705;SDS011;5404;42.656;23.336;2023-09-30T09:30:15;25.27;;;8.10;;
10705;SDS011;5404;42.656;23.336;2023-09-30T09:33:00;22.08;;;8.05;;
10705;SDS011;5404;42.656;23.336;2023-09-30T09:35:30;22.15;;;6.60;;
10705;SDS011;5404;42.656;23.336;2023-09-30T09:38:01;21.35;;;6.63;;
10705;SDS011;5404;42.656;23.336;2023-09-30T09:40:29;17.60;;;5.95;;
10705;SDS011;5404;42.656;23.336;2023-09-30T09:42:57;15.52;;;6.00;;
10705;SDS011;5404;42.656;23.336;2023-09-30T09:45:25;23.50;;;5.88;;
10705;SDS011;5404;42.656;23.336;2023-09-30T09:47:52;11.82;;;6.28;;
10705;SDS011;5404;42.656;23.336;2023-09-30T09:50:19;19.08;;;6.50;;
10705;SDS011;5404;42.656;23.336;2023-09-30T09:52:50;12.85;;;6.10;;
10705;SDS011;5404;42.656;23.336;2023-09-30T09:55:17;22.38;;;6.75;;
10705;SDS011;5404;42.656;23.336;2023-09-30T09:57:43;11.93;;;5.65;;
10705;SDS011;5404;42.656;23.336;2023-09-30T10:00:23;14.25;;;5.00;;
10705;SDS011;5404;42.656;23.336;2023-09-30T10:02:50;12.90;;;4.57;;
10705;SDS011;5404;42.656;23.336;2023-09-30T10:05:17;15.80;;;5.75;;
10705;SDS011;5404;42.656;23.336;2023-09-30T10:07:44;8.90;;;4.47;;
10705;SDS011;5404;42.656;23.336;2023-09-30T10:10:17;13.02;;;4.97;;
10705;SDS011;5404;42.656;23.336;2023-09-30T10:12:44;35.03;;;5.63;;
10705;SDS011;5404;42.656;23.336;2023-09-30T10:18:07;8.48;;;4.40;;
10705;SDS011;5404;42.656;23.336;2023-09-30T10:20:38;11.25;;;5.30;;
10705;SDS011;5404;42.656;23.336;2023-09-30T10:25:52;16.23;;;4.53;;
10705;SDS011;5404;42.656;23.336;2023-09-30T10:28:46;21.13;;;5.60;;
10705;SDS011;5404;42.656;23.336;2023-09-30T10:36:34;18.75;;;3.97;;
10705;SDS011;5404;42.656;23.336;2023-09-30T10:39:03;6.93;;;4.30;;
10705;SDS011;5404;42.656;23.336;2023-09-30T10:46:48;16.10;;;3.70;;
10705;SDS011;5404;42.656;23.336;2023-09-30T10:51:56;6.00;;;3.47;;
10705;SDS011;5404;42.656;23.336;2023-09-30T10:54:26;11.70;;;3.47;;
10705;SDS011;5404;42.656;23.336;2023-09-30T10:56:56;12.00;;;3.50;;
10705;SDS011;5404;42.656;23.336;2023-09-30T10:59:28;12.65;;;3.78;;
10705;SDS011;5404;42.656;23.336;2023-09-30T11:02:00;9.30;;;3.58;;
10705;SDS011;5404;42.656;23.336;2023-09-30T11:04:25;6.53;;;3.70;;
10705;SDS011;5404;42.656;23.336;2023-09-30T11:06:52;4.93;;;3.33;;
10705;SDS011;5404;42.656;23.336;2023-09-30T11:09:18;10.50;;;3.42;;
10705;SDS011;5404;42.656;23.336;2023-09-30T11:11:46;13.57;;;3.70;;
10705;SDS011;5404;42.656;23.336;2023-09-30T11:14:20;10.00;;;3.33;;
10705;SDS011;5404;42.656;23.336;2023-09-30T11:16:54;17.70;;;3.88;;
10705;SDS011;5404;42.656;23.336;2023-09-30T11:19:21;12.93;;;3.90;;
10705;SDS011;5404;42.656;23.336;2023-09-30T11:21:48;9.13;;;4.05;;
10705;SDS011;5404;42.656;23.336;2023-09-30T11:24:14;18.55;;;3.58;;
10705;SDS011;5404;42.656;23.336;2023-09-30T11:26:40;9.75;;;3.67;;
10705;SDS011;5404;42.656;23.336;2023-09-30T11:29:10;15.27;;;3.75;;
10705;SDS011;5404;42.656;23.336;2023-09-30T11:31:38;14.88;;;4.15;;
10705;SDS011;5404;42.656;23.336;2023-09-30T11:34:05;10.32;;;4.25;;
10705;SDS011;5404;42.656;23.336;2023-09-30T11:36:33;10.50;;;4.32;;
10705;SDS011;5404;42.656;23.336;2023-09-30T11:38:59;10.27;;;4.00;;
10705;SDS011;5404;42.656;23.336;2023-09-30T11:41:35;5.00;;;3.60;;
10705;SDS011;5404;42.656;23.336;2023-09-30T11:44:09;11.15;;;4.32;;
10705;SDS011;5404;42.656;23.336;2023-09-30T11:49:26;12.82;;;3.75;;
10705;SDS011;5404;42.656;23.336;2023-09-30T11:51:54;8.15;;;4.55;;
10705;SDS011;5404;42.656;23.336;2023-09-30T11:54:20;13.82;;;4.05;;
10705;SDS011;5404;42.656;23.336;2023-09-30T11:56:47;12.02;;;4.63;;
10705;SDS011;5404;42.656;23.336;2023-09-30T11:59:13;12.18;;;4.18;;
10705;SDS011;5404;42.656;23.336;2023-09-30T12:01:39;14.05;;;4.30;;
10705;SDS011;5404;42.656;23.336;2023-09-30T12:04:05;6.60;;;4.28;;
10705;SDS011;5404;42.656;23.336;2023-09-30T12:06:31;17.25;;;4.30;;
10705;SDS011;5404;42.656;23.336;2023-09-30T12:08:59;13.13;;;4.90;;
10705;SDS011;5404;42.656;23.336;2023-09-30T12:11:25;14.77;;;5.07;;
10705;SDS011;5404;42.656;23.336;2023-09-30T12:13:50;11.13;;;4.50;;
10705;SDS011;5404;42.656;23.336;2023-09-30T12:16:16;14.48;;;4.85;;
10705;SDS011;5404;42.656;23.336;2023-09-30T12:18:42;6.93;;;4.68;;
10705;SDS011;5404;42.656;23.336;2023-09-30T12:21:11;14.25;;;4.22;;
10705;SDS011;5404;42.656;23.336;2023-09-30T12:23:38;9.73;;;4.15;;
10705;SDS011;5404;42.656;23.336;2023-09-30T12:26:04;17.58;;;4.45;;
10705;SDS011;5404;42.656;23.336;2023-09-30T12:28:34;12.48;;;5.30;;
10705;SDS011;5404;42.656;23.336;2023-09-30T12:31:00;12.70;;;4.72;;
10705;SDS011;5404;42.656;23.336;2023-09-30T12:33:28;14.63;;;5.53;;
10705;SDS011;5404;42.656;23.336;2023-09-30T12:35:55;16.75;;;5.03;;
10705;SDS011;5404;42.656;23.336;2023-09-30T12:38:21;10.85;;;4.13;;
10705;SDS011;5404;42.656;23.336;2023-09-30T12:40:47;16.02;;;5.40;;
10705;SDS011;5404;42.656;23.336;2023-09-30T12:43:13;10.38;;;4.40;;
10705;SDS011;5404;42.656;23.336;2023-09-30T12:45:39;8.30;;;4.13;;
10705;SDS011;5404;42.656;23.336;2023-09-30T12:48:04;7.25;;;4.20;;
10705;SDS011;5404;42.656;23.336;2023-09-30T12:50:30;10.95;;;4.75;;
10705;SDS011;5404;42.656;23.336;2023-09-30T12:52:55;11.02;;;4.95;;
10705;SDS011;5404;42.656;23.336;2023-09-30T12:55:21;14.65;;;4.70;;
10705;SDS011;5404;42.656;23.336;2023-09-30T12:57:46;8.55;;;4.60;;
10705;SDS011;5404;42.656;23.336;2023-09-30T13:00:12;16.27;;;5.95;;
10705;SDS011;5404;42.656;23.336;2023-09-30T13:02:40;5.75;;;4.28;;
10705;SDS011;5404;42.656;23.336;2023-09-30T13:05:06;9.10;;;5.05;;
10705;SDS011;5404;42.656;23.336;2023-09-30T13:07:32;14.48;;;5.13;;
10705;SDS011;5404;42.656;23.336;2023-09-30T13:09:58;13.52;;;5.07;;
10705;SDS011;5404;42.656;23.336;2023-09-30T13:12:25;20.33;;;5.90;;
10705;SDS011;5404;42.656;23.336;2023-09-30T13:14:51;9.88;;;4.40;;
10705;SDS011;5404;42.656;23.336;2023-09-30T13:17:21;14.57;;;5.07;;
10705;SDS011;5404;42.656;23.336;2023-09-30T13:19:50;28.98;;;4.97;;
10705;SDS011;5404;42.656;23.336;2023-09-30T13:22:16;11.63;;;4.80;;
10705;SDS011;5404;42.656;23.336;2023-09-30T13:24:42;12.23;;;4.32;;
10705;SDS011;5404;42.656;23.336;2023-09-30T13:27:08;14.45;;;5.20;;
10705;SDS011;5404;42.656;23.336;2023-09-30T13:29:33;14.65;;;5.28;;
10705;SDS011;5404;42.656;23.336;2023-09-30T13:31:59;13.65;;;5.28;;
10705;SDS011;5404;42.656;23.336;2023-09-30T13:34:24;13.98;;;5.05;;
10705;SDS011;5404;42.656;23.336;2023-09-30T13:36:50;11.43;;;4.38;;
10705;SDS011;5404;42.656;23.336;2023-09-30T13:39:15;10.35;;;5.25;;
10705;SDS011;5404;42.656;23.336;2023-09-30T13:41:42;8.70;;;4.53;;
10705;SDS011;5404;42.656;23.336;2023-09-30T13:44:08;14.43;;;5.70;;
10705;SDS011;5404;42.656;23.336;2023-09-30T13:46:34;11.25;;;5.15;;
10705;SDS011;5404;42.656;23.336;2023-09-30T13:48:59;13.77;;;5.00;;
10705;SDS011;5404;42.656;23.336;2023-09-30T13:51:25;12.00;;;5.57;;
10705;SDS011;5404;42.656;23.336;2023-09-30T13:53:51;8.88;;;5.47;;
10705;SDS011;5404;42.656;23.336;2023-09-30T13:56:18;14.23;;;5.45;;
10705;SDS011;5404;42.656;23.336;2023-09-30T13:58:44;27.05;;;6.03;;
10705;SDS011;5404;42.656;23.336;2023-09-30T14:01:09;16.15;;;5.75;;
10705;SDS011;5404;42.656;23.336;2023-09-30T14:03:36;24.02;;;5.63;;
10705;SDS011;5404;42.656;23.336;2023-09-30T14:06:01;15.02;;;6.30;;
10705;SDS011;5404;42.656;23.336;2023-09-30T14:08:27;17.35;;;5.28;;
10705;SDS011;5404;42.656;23.336;2023-09-30T14:10:52;11.98;;;5.22;;
10705;SDS011;5404;42.656;23.336;2023-09-30T14:13:18;14.23;;;5.53;;
10705;SDS011;5404;42.656;23.336;2023-09-30T14:15:44;14.70;;;5.22;;
10705;SDS011;5404;42.656;23.336;2023-09-30T14:18:09;22.50;;;5.13;;
10705;SDS011;5404;42.656;23.336;2023-09-30T14:20:35;8.63;;;4.78;;
10705;SDS011;5404;42.656;23.336;2023-09-30T14:23:00;9.18;;;4.65;;
10705;SDS011;5404;42.656;23.336;2023-09-30T14:25:27;6.50;;;4.60;;
10705;SDS011;5404;42.656;23.336;2023-09-30T14:27:52;29.48;;;4.88;;
10705;SDS011;5404;42.656;23.336;2023-09-30T14:30:18;15.82;;;4.78;;
10705;SDS011;5404;42.656;23.336;2023-09-30T14:32:45;8.75;;;4.68;;
10705;SDS011;5404;42.656;23.336;2023-09-30T14:35:10;10.10;;;4.68;;
10705;SDS011;5404;42.656;23.336;2023-09-30T14:37:36;15.02;;;4.18;;
10705;SDS011;5404;42.656;23.336;2023-09-30T14:40:02;15.57;;;4.47;;
10705;SDS011;5404;42.656;23.336;2023-09-30T14:42:35;15.93;;;5.35;;
10705;SDS011;5404;42.656;23.336;2023-09-30T14:45:03;7.80;;;4.30;;
10705;SDS011;5404;42.656;23.336;2023-09-30T14:47:29;12.38;;;3.70;;
10705;SDS011;5404;42.656;23.336;2023-09-30T14:49:55;11.88;;;4.95;;
10705;SDS011;5404;42.656;23.336;2023-09-30T14:52:20;10.23;;;4.40;;
10705;SDS011;5404;42.656;23.336;2023-09-30T14:54:46;24.25;;;4.55;;
10705;SDS011;5404;42.656;23.336;2023-09-30T14:57:12;12.23;;;4.72;;
10705;SDS011;5404;42.656;23.336;2023-09-30T14:59:39;7.10;;;4.03;;
10705;SDS011;5404;42.656;23.336;2023-09-30T15:02:05;11.82;;;4.53;;